sensor_id;sensor_type;location;lat;lon;timestamp;P1;durP1;ratioP1;P2;durP2;ratioP2
60372;SDS011;46216;52.220;5.134;2023-04-01T00:00:28;35.75;;;10.60;;
60372;SDS011;46216;52.220;5.134;2023-04-01T00:02:54;36.13;;;10.50;;
60372;SDS011;46216;52.220;5.134;2023-04-01T00:05:19;30.58;;;10.23;;
60372;SDS011;46216;52.220;5.134;2023-04-01T00:07:45;33.03;;;11.20;;
60372;SDS011;46216;52.220;5.134;2023-04-01T00:10:11;29.33;;;11.60;;
60372;SDS011;46216;52.220;5.134;2023-04-01T00:12:37;31.45;;;10.75;;
60372;SDS011;46216;52.220;5.134;2023-04-01T00:15:04;35.08;;;12.02;;
60372;SDS011;46216;52.220;5.134;2023-04-01T00:17:32;35.92;;;12.55;;
60372;SDS011;46216;52.220;5.134;2023-04-01T00:19:58;40.40;;;13.23;;
60372;SDS011;46216;52.220;5.134;2023-04-01T00:22:27;37.33;;;14.43;;
60372;SDS011;46216;52.220;5.134;2023-04-01T00:24:53;43.25;;;14.57;;
60372;SDS011;46216;52.220;5.134;2023-04-01T00:27:18;35.92;;;13.57;;
60372;SDS011;46216;52.220;5.134;2023-04-01T00:29:45;35.03;;;13.40;;
60372;SDS011;46216;52.220;5.134;2023-04-01T00:32:11;43.05;;;15.40;;
60372;SDS011;46216;52.220;5.134;2023-04-01T00:34:37;37.30;;;14.93;;
60372;SDS011;46216;52.220;5.134;2023-04-01T00:37:06;44.55;;;16.33;;
60372;SDS011;46216;52.220;5.134;2023-04-01T00:39:32;44.53;;;15.70;;
60372;SDS011;46216;52.220;5.134;2023-04-01T00:42:01;45.83;;;15.93;;
60372;SDS011;46216;52.220;5.134;2023-04-01T00:44:31;44.13;;;15.88;;
60372;SDS011;46216;52.220;5.134;2023-04-01T00:46:59;47.78;;;16.20;;
60372;SDS011;46216;52.220;5.134;2023-04-01T00:49:29;41.55;;;16.38;;
60372;SDS011;46216;52.220;5.134;2023-04-01T00:52:02;47.20;;;16.90;;
60372;SDS011;46216;52.220;5.134;2023-04-01T00:54:29;37.85;;;13.93;;
60372;SDS011;46216;52.220;5.134;2023-04-01T00:56:57;32.28;;;13.07;;
60372;SDS011;46216;52.220;5.134;2023-04-01T00:59:27;34.00;;;12.18;;
60372;SDS011;46216;52.220;5.134;2023-04-01T01:01:56;32.08;;;11.93;;
60372;SDS011;46216;52.220;5.134;2023-04-01T01:04:28;34.47;;;12.98;;
60372;SDS011;46216;52.220;5.134;2023-04-01T01:09:47;24.13;;;9.63;;
60372;SDS011;46216;52.220;5.134;2023-04-01T01:12:25;30.58;;;10.13;;
60372;SDS011;46216;52.220;5.134;2023-04-01T01:15:08;25.17;;;9.48;;
60372;SDS011;46216;52.220;5.134;2023-04-01T01:37:35;19.73;;;7.72;;
60372;SDS011;46216;52.220;5.134;2023-04-01T01:40:03;17.77;;;6.93;;
60372;SDS011;46216;52.220;5.134;2023-04-01T01:42:32;19.17;;;7.78;;
60372;SDS011;46216;52.220;5.134;2023-04-01T01:45:05;18.27;;;7.13;;
60372;SDS011;46216;52.220;5.134;2023-04-01T01:47:33;17.40;;;7.65;;
60372;SDS011;46216;52.220;5.134;2023-04-01T01:50:00;18.30;;;6.78;;
60372;SDS011;46216;52.220;5.134;2023-04-01T01:52:29;18.08;;;6.88;;
60372;SDS011;46216;52.220;5.134;2023-04-01T01:54:55;17.67;;;6.65;;
60372;SDS011;46216;52.220;5.134;2023-04-01T01:57:27;16.60;;;6.28;;
60372;SDS011;46216;52.220;5.134;2023-04-01T01:59:57;12.10;;;6.22;;
60372;SDS011;46216;52.220;5.134;2023-04-01T02:02:26;18.50;;;6.38;;
60372;SDS011;46216;52.220;5.134;2023-04-01T02:04:52;16.65;;;6.82;;
60372;SDS011;46216;52.220;5.134;2023-04-01T02:07:22;23.73;;;7.40;;
60372;SDS011;46216;52.220;5.134;2023-04-01T02:09:52;17.85;;;7.47;;
60372;SDS011;46216;52.220;5.134;2023-04-01T02:12:18;19.95;;;7.53;;
60372;SDS011;46216;52.220;5.134;2023-04-01T02:17:35;23.58;;;8.88;;
60372;SDS011;46216;52.220;5.134;2023-04-01T02:20:07;20.55;;;9.23;;
60372;SDS011;46216;52.220;5.134;2023-04-01T02:22:37;22.50;;;8.80;;
60372;SDS011;46216;52.220;5.134;2023-04-01T02:25:14;22.60;;;9.45;;
60372;SDS011;46216;52.220;5.134;2023-04-01T02:27:43;18.83;;;8.88;;
60372;SDS011;46216;52.220;5.134;2023-04-01T02:30:10;19.13;;;9.60;;
60372;SDS011;46216;52.220;5.134;2023-04-01T02:32:37;19.63;;;9.63;;
60372;SDS011;46216;52.220;5.134;2023-04-01T02:35:07;23.55;;;10.43;;
60372;SDS011;46216;52.220;5.134;2023-04-01T02:37:35;23.95;;;10.45;;
60372;SDS011;46216;52.220;5.134;2023-04-01T02:40:02;23.95;;;10.90;;
60372;SDS011;46216;52.220;5.134;2023-04-01T02:42:31;27.20;;;12.57;;
60372;SDS011;46216;52.220;5.134;2023-04-01T02:44:56;25.65;;;12.73;;
60372;SDS011;46216;52.220;5.134;2023-04-01T02:47:22;31.48;;;13.55;;
60372;SDS011;46216;52.220;5.134;2023-04-01T02:49:47;34.78;;;14.82;;
60372;SDS011;46216;52.220;5.134;2023-04-01T02:52:12;32.53;;;15.07;;
60372;SDS011;46216;52.220;5.134;2023-04-01T02:54:38;43.08;;;17.38;;
60372;SDS011;46216;52.220;5.134;2023-04-01T02:57:03;41.55;;;19.02;;
60372;SDS011;46216;52.220;5.134;2023-04-01T02:59:29;52.83;;;19.45;;
60372;SDS011;46216;52.220;5.134;2023-04-01T03:01:54;55.50;;;20.35;;
60372;SDS011;46216;52.220;5.134;2023-04-01T03:04:20;61.05;;;21.33;;
60372;SDS011;46216;52.220;5.134;2023-04-01T03:06:45;52.97;;;19.88;;
60372;SDS011;46216;52.220;5.134;2023-04-01T03:09:11;58.78;;;19.95;;
60372;SDS011;46216;52.220;5.134;2023-04-01T03:11:36;63.30;;;20.40;;
60372;SDS011;46216;52.220;5.134;2023-04-01T03:14:01;70.50;;;21.20;;
60372;SDS011;46216;52.220;5.134;2023-04-01T03:16:27;60.20;;;20.02;;
60372;SDS011;46216;52.220;5.134;2023-04-01T03:18:52;58.88;;;20.35;;
60372;SDS011;46216;52.220;5.134;2023-04-01T03:21:22;54.30;;;20.25;;
60372;SDS011;46216;52.220;5.134;2023-04-01T03:23:49;59.03;;;21.05;;
60372;SDS011;46216;52.220;5.134;2023-04-01T03:26:15;57.53;;;21.00;;
60372;SDS011;46216;52.220;5.134;2023-04-01T03:28:40;58.30;;;20.73;;
60372;SDS011;46216;52.220;5.134;2023-04-01T03:31:06;62.35;;;20.52;;
60372;SDS011;46216;52.220;5.134;2023-04-01T03:33:31;62.15;;;20.88;;
60372;SDS011;46216;52.220;5.134;2023-04-01T03:35:57;68.22;;;21.73;;
60372;SDS011;46216;52.220;5.134;2023-04-01T03:38:23;58.80;;;20.65;;
60372;SDS011;46216;52.220;5.134;2023-04-01T03:40:48;57.42;;;20.02;;
60372;SDS011;46216;52.220;5.134;2023-04-01T03:43:14;60.55;;;19.13;;
60372;SDS011;46216;52.220;5.134;2023-04-01T03:45:48;60.80;;;19.40;;
60372;SDS011;46216;52.220;5.134;2023-04-01T03:48:14;40.58;;;14.88;;
60372;SDS011;46216;52.220;5.134;2023-04-01T03:50:40;34.40;;;12.40;;
60372;SDS011;46216;52.220;5.134;2023-04-01T03:53:06;32.60;;;12.00;;
60372;SDS011;46216;52.220;5.134;2023-04-01T03:55:31;32.40;;;10.68;;
60372;SDS011;46216;52.220;5.134;2023-04-01T03:57:57;27.77;;;9.38;;
60372;SDS011;46216;52.220;5.134;2023-04-01T04:00:22;21.67;;;8.45;;
60372;SDS011;46216;52.220;5.134;2023-04-01T04:02:48;20.10;;;7.45;;
60372;SDS011;46216;52.220;5.134;2023-04-01T04:05:13;18.20;;;7.40;;
60372;SDS011;46216;52.220;5.134;2023-04-01T04:07:39;16.40;;;6.43;;
60372;SDS011;46216;52.220;5.134;2023-04-01T04:10:04;15.77;;;6.03;;
60372;SDS011;46216;52.220;5.134;2023-04-01T04:12:31;15.88;;;6.13;;
60372;SDS011;46216;52.220;5.134;2023-04-01T04:14:56;17.60;;;6.40;;
60372;SDS011;46216;52.220;5.134;2023-04-01T04:17:21;15.88;;;6.38;;
60372;SDS011;46216;52.220;5.134;2023-04-01T04:19:47;17.17;;;6.40;;
60372;SDS011;46216;52.220;5.134;2023-04-01T04:22:12;13.40;;;5.85;;
60372;SDS011;46216;52.220;5.134;2023-04-01T04:24:37;15.20;;;6.22;;
60372;SDS011;46216;52.220;5.134;2023-04-01T04:27:03;14.75;;;6.57;;
60372;SDS011;46216;52.220;5.134;2023-04-01T04:29:29;12.95;;;6.28;;
60372;SDS011;46216;52.220;5.134;2023-04-01T04:31:54;16.67;;;7.45;;
60372;SDS011;46216;52.220;5.134;2023-04-01T04:34:20;18.80;;;7.43;;
60372;SDS011;46216;52.220;5.134;2023-04-01T04:36:47;16.13;;;7.72;;
60372;SDS011;46216;52.220;5.134;2023-04-01T04:39:14;14.98;;;7.38;;
60372;SDS011;46216;52.220;5.134;2023-04-01T04:41:40;19.23;;;8.88;;
60372;SDS011;46216;52.220;5.134;2023-04-01T04:44:06;16.77;;;7.50;;
60372;SDS011;46216;52.220;5.134;2023-04-01T04:46:31;19.25;;;7.78;;
60372;SDS011;46216;52.220;5.134;2023-04-01T04:48:56;19.25;;;8.40;;
60372;SDS011;46216;52.220;5.134;2023-04-01T04:51:22;16.65;;;7.80;;
60372;SDS011;46216;52.220;5.134;2023-04-01T04:53:48;19.77;;;8.05;;
60372;SDS011;46216;52.220;5.134;2023-04-01T04:56:17;17.42;;;8.75;;
60372;SDS011;46216;52.220;5.134;2023-04-01T04:58:46;20.27;;;8.77;;
60372;SDS011;46216;52.220;5.134;2023-04-01T05:01:12;18.98;;;9.15;;
60372;SDS011;46216;52.220;5.134;2023-04-01T05:03:39;19.25;;;9.85;;
60372;SDS011;46216;52.220;5.134;2023-04-01T05:06:05;20.20;;;9.70;;
60372;SDS011;46216;52.220;5.134;2023-04-01T05:08:31;21.30;;;9.45;;
60372;SDS011;46216;52.220;5.134;2023-04-01T05:10:58;19.77;;;9.38;;
60372;SDS011;46216;52.220;5.134;2023-04-01T05:13:24;18.45;;;9.25;;
60372;SDS011;46216;52.220;5.134;2023-04-01T05:15:50;19.08;;;9.13;;
60372;SDS011;46216;52.220;5.134;2023-04-01T05:18:15;17.70;;;8.80;;
60372;SDS011;46216;52.220;5.134;2023-04-01T05:20:48;20.25;;;9.43;;
60372;SDS011;46216;52.220;5.134;2023-04-01T05:23:17;19.05;;;9.30;;
60372;SDS011;46216;52.220;5.134;2023-04-01T05:25:43;20.58;;;9.90;;
60372;SDS011;46216;52.220;5.134;2023-04-01T05:28:10;19.13;;;9.45;;
60372;SDS011;46216;52.220;5.134;2023-04-01T05:30:36;21.38;;;9.80;;
60372;SDS011;46216;52.220;5.134;2023-04-01T05:33:01;20.30;;;10.13;;
60372;SDS011;46216;52.220;5.134;2023-04-01T05:35:26;20.05;;;9.45;;
60372;SDS011;46216;52.220;5.134;2023-04-01T05:37:52;17.52;;;9.68;;
60372;SDS011;46216;52.220;5.134;2023-04-01T05:40:17;19.35;;;9.48;;
60372;SDS011;46216;52.220;5.134;2023-04-01T05:42:43;19.27;;;9.68;;
60372;SDS011;46216;52.220;5.134;2023-04-01T05:45:09;22.60;;;9.75;;
60372;SDS011;46216;52.220;5.134;2023-04-01T05:47:35;22.40;;;9.73;;
60372;SDS011;46216;52.220;5.134;2023-04-01T05:50:00;22.85;;;9.48;;
60372;SDS011;46216;52.220;5.134;2023-04-01T05:52:25;22.38;;;9.95;;
60372;SDS011;46216;52.220;5.134;2023-04-01T05:54:51;23.35;;;10.63;;
60372;SDS011;46216;52.220;5.134;2023-04-01T05:57:16;24.52;;;9.98;;
60372;SDS011;46216;52.220;5.134;2023-04-01T05:59:42;23.33;;;9.82;;
60372;SDS011;46216;52.220;5.134;2023-04-01T06:02:08;22.35;;;9.52;;
60372;SDS011;46216;52.220;5.134;2023-04-01T06:04:37;21.25;;;9.35;;
60372;SDS011;46216;52.220;5.134;2023-04-01T06:07:17;17.48;;;8.55;;
60372;SDS011;46216;52.220;5.134;2023-04-01T06:09:43;17.92;;;8.68;;
60372;SDS011;46216;52.220;5.134;2023-04-01T06:23:25;18.08;;;8.18;;
60372;SDS011;46216;52.220;5.134;2023-04-01T06:50:40;24.48;;;8.52;;
60372;SDS011;46216;52.220;5.134;2023-04-01T06:56:13;20.73;;;9.32;;
60372;SDS011;46216;52.220;5.134;2023-04-01T07:01:37;23.90;;;9.60;;
60372;SDS011;46216;52.220;5.134;2023-04-01T07:04:10;24.10;;;8.95;;
60372;SDS011;46216;52.220;5.134;2023-04-01T07:06:44;22.90;;;9.15;;
60372;SDS011;46216;52.220;5.134;2023-04-01T07:09:19;24.60;;;9.02;;
60372;SDS011;46216;52.220;5.134;2023-04-01T07:11:49;20.73;;;8.02;;
60372;SDS011;46216;52.220;5.134;2023-04-01T07:14:35;20.70;;;8.93;;
60372;SDS011;46216;52.220;5.134;2023-04-01T07:17:19;23.10;;;8.95;;
60372;SDS011;46216;52.220;5.134;2023-04-01T07:19:51;19.45;;;8.95;;
60372;SDS011;46216;52.220;5.134;2023-04-01T07:24:57;25.10;;;9.35;;
60372;SDS011;46216;52.220;5.134;2023-04-01T07:27:30;25.90;;;9.52;;
60372;SDS011;46216;52.220;5.134;2023-04-01T07:29:56;25.73;;;9.48;;
60372;SDS011;46216;52.220;5.134;2023-04-01T07:32:42;28.77;;;10.30;;
60372;SDS011;46216;52.220;5.134;2023-04-01T07:35:21;25.30;;;9.73;;
60372;SDS011;46216;52.220;5.134;2023-04-01T07:38:08;25.40;;;9.98;;
60372;SDS011;46216;52.220;5.134;2023-04-01T07:40:43;28.38;;;10.55;;
60372;SDS011;46216;52.220;5.134;2023-04-01T07:49:01;33.88;;;11.65;;
60372;SDS011;46216;52.220;5.134;2023-04-01T07:51:33;41.65;;;12.65;;
60372;SDS011;46216;52.220;5.134;2023-04-01T08:10:50;29.75;;;11.68;;
60372;SDS011;46216;52.220;5.134;2023-04-01T08:21:51;31.58;;;12.70;;
60372;SDS011;46216;52.220;5.134;2023-04-01T08:24:21;32.00;;;12.70;;
60372;SDS011;46216;52.220;5.134;2023-04-01T08:26:49;28.80;;;11.68;;
60372;SDS011;46216;52.220;5.134;2023-04-01T08:29:21;27.20;;;11.50;;
60372;SDS011;46216;52.220;5.134;2023-04-01T08:32:05;28.40;;;11.75;;
60372;SDS011;46216;52.220;5.134;2023-04-01T08:34:37;28.13;;;12.25;;
60372;SDS011;46216;52.220;5.134;2023-04-01T08:37:09;30.45;;;12.40;;
60372;SDS011;46216;52.220;5.134;2023-04-01T08:39:40;27.85;;;11.32;;
60372;SDS011;46216;52.220;5.134;2023-04-01T08:48:08;22.70;;;10.00;;
60372;SDS011;46216;52.220;5.134;2023-04-01T09:11:10;20.75;;;8.50;;
60372;SDS011;46216;52.220;5.134;2023-04-01T09:29:45;17.88;;;7.97;;
60372;SDS011;46216;52.220;5.134;2023-04-01T09:38:30;20.10;;;9.45;;
60372;SDS011;46216;52.220;5.134;2023-04-01T09:41:02;20.20;;;9.60;;
60372;SDS011;46216;52.220;5.134;2023-04-01T09:51:47;15.68;;;6.70;;
60372;SDS011;46216;52.220;5.134;2023-04-01T09:54:24;16.02;;;7.72;;
60372;SDS011;46216;52.220;5.134;2023-04-01T09:57:07;20.15;;;8.15;;
60372;SDS011;46216;52.220;5.134;2023-04-01T10:14:37;21.00;;;9.93;;
60372;SDS011;46216;52.220;5.134;2023-04-01T10:20:15;22.75;;;10.15;;
60372;SDS011;46216;52.220;5.134;2023-04-01T10:34:17;21.67;;;10.35;;
60372;SDS011;46216;52.220;5.134;2023-04-01T10:37:03;19.85;;;10.38;;
60372;SDS011;46216;52.220;5.134;2023-04-01T10:39:55;24.00;;;10.43;;
60372;SDS011;46216;52.220;5.134;2023-04-01T10:42:30;25.17;;;11.48;;
60372;SDS011;46216;52.220;5.134;2023-04-01T10:53:33;14.25;;;8.05;;
60372;SDS011;46216;52.220;5.134;2023-04-01T11:07:51;12.93;;;7.50;;
60372;SDS011;46216;52.220;5.134;2023-04-01T11:33:21;12.95;;;8.23;;
60372;SDS011;46216;52.220;5.134;2023-04-01T11:36:06;13.70;;;8.25;;
60372;SDS011;46216;52.220;5.134;2023-04-01T11:38:39;14.82;;;8.85;;
60372;SDS011;46216;52.220;5.134;2023-04-01T11:41:33;14.40;;;9.85;;
60372;SDS011;46216;52.220;5.134;2023-04-01T11:44:28;17.73;;;10.15;;
60372;SDS011;46216;52.220;5.134;2023-04-01T12:17:02;27.05;;;14.38;;
60372;SDS011;46216;52.220;5.134;2023-04-01T12:42:34;17.15;;;9.48;;
60372;SDS011;46216;52.220;5.134;2023-04-01T12:45:28;16.58;;;10.32;;
60372;SDS011;46216;52.220;5.134;2023-04-01T12:51:35;16.27;;;9.90;;
60372;SDS011;46216;52.220;5.134;2023-04-01T12:57:19;15.75;;;9.75;;
60372;SDS011;46216;52.220;5.134;2023-04-01T13:16:45;12.25;;;8.57;;
60372;SDS011;46216;52.220;5.134;2023-04-01T13:27:44;9.32;;;7.03;;
60372;SDS011;46216;52.220;5.134;2023-04-01T13:30:33;9.88;;;6.68;;
60372;SDS011;46216;52.220;5.134;2023-04-01T13:46:34;10.02;;;7.68;;
60372;SDS011;46216;52.220;5.134;2023-04-01T13:54:16;10.73;;;8.15;;
60372;SDS011;46216;52.220;5.134;2023-04-01T14:05:24;12.13;;;9.63;;
60372;SDS011;46216;52.220;5.134;2023-04-01T14:08:17;11.73;;;9.63;;
60372;SDS011;46216;52.220;5.134;2023-04-01T14:11:02;13.32;;;9.70;;
60372;SDS011;46216;52.220;5.134;2023-04-01T14:13:57;12.93;;;9.52;;
60372;SDS011;46216;52.220;5.134;2023-04-01T14:27:55;12.82;;;9.45;;
60372;SDS011;46216;52.220;5.134;2023-04-01T14:30:35;13.48;;;9.52;;
60372;SDS011;46216;52.220;5.134;2023-04-01T14:38:49;14.52;;;9.82;;
60372;SDS011;46216;52.220;5.134;2023-04-01T14:50:45;13.32;;;9.45;;
60372;SDS011;46216;52.220;5.134;2023-04-01T14:55:56;12.48;;;9.13;;
60372;SDS011;46216;52.220;5.134;2023-04-01T14:58:24;10.98;;;8.70;;
60372;SDS011;46216;52.220;5.134;2023-04-01T15:06:10;15.05;;;10.43;;
60372;SDS011;46216;52.220;5.134;2023-04-01T15:09:04;10.20;;;7.93;;
60372;SDS011;46216;52.220;5.134;2023-04-01T15:11:43;10.85;;;8.23;;
60372;SDS011;46216;52.220;5.134;2023-04-01T15:14:24;11.02;;;8.30;;
60372;SDS011;46216;52.220;5.134;2023-04-01T15:37:37;11.88;;;7.85;;
60372;SDS011;46216;52.220;5.134;2023-04-01T15:40:40;11.27;;;8.18;;
60372;SDS011;46216;52.220;5.134;2023-04-01T15:43:22;9.30;;;7.55;;
60372;SDS011;46216;52.220;5.134;2023-04-01T15:52:07;11.82;;;7.50;;
60372;SDS011;46216;52.220;5.134;2023-04-01T15:57:52;9.90;;;7.38;;
60372;SDS011;46216;52.220;5.134;2023-04-01T16:00:45;10.27;;;7.38;;
60372;SDS011;46216;52.220;5.134;2023-04-01T16:04:25;9.43;;;7.07;;
60372;SDS011;46216;52.220;5.134;2023-04-01T16:09:06;10.30;;;8.13;;
60372;SDS011;46216;52.220;5.134;2023-04-01T16:19:51;8.63;;;6.97;;
60372;SDS011;46216;52.220;5.134;2023-04-01T16:22:30;7.95;;;6.55;;
60372;SDS011;46216;52.220;5.134;2023-04-01T16:30:37;7.20;;;5.10;;
60372;SDS011;46216;52.220;5.134;2023-04-01T16:36:09;5.72;;;4.18;;
60372;SDS011;46216;52.220;5.134;2023-04-01T16:41:41;3.58;;;3.00;;
60372;SDS011;46216;52.220;5.134;2023-04-01T16:44:27;3.88;;;3.50;;
60372;SDS011;46216;52.220;5.134;2023-04-01T16:46:58;4.00;;;3.60;;
60372;SDS011;46216;52.220;5.134;2023-04-01T16:59:57;4.00;;;3.50;;
60372;SDS011;46216;52.220;5.134;2023-04-01T17:02:38;4.32;;;3.92;;
60372;SDS011;46216;52.220;5.134;2023-04-01T17:05:10;6.25;;;5.15;;
60372;SDS011;46216;52.220;5.134;2023-04-01T17:16:12;4.00;;;3.55;;
60372;SDS011;46216;52.220;5.134;2023-04-01T17:18:54;3.88;;;3.47;;
60372;SDS011;46216;52.220;5.134;2023-04-01T17:24:22;3.72;;;3.42;;
60372;SDS011;46216;52.220;5.134;2023-04-01T17:27:05;4.10;;;3.25;;
60372;SDS011;46216;52.220;5.134;2023-04-01T17:38:17;4.53;;;4.13;;
60372;SDS011;46216;52.220;5.134;2023-04-01T17:41:05;4.28;;;3.88;;
60372;SDS011;46216;52.220;5.134;2023-04-01T17:43:48;5.57;;;4.82;;
60372;SDS011;46216;52.220;5.134;2023-04-01T17:49:17;5.28;;;4.03;;
60372;SDS011;46216;52.220;5.134;2023-04-01T17:54:46;3.92;;;3.60;;
60372;SDS011;46216;52.220;5.134;2023-04-01T18:02:57;3.70;;;3.40;;
60372;SDS011;46216;52.220;5.134;2023-04-01T18:08:25;4.05;;;3.65;;
60372;SDS011;46216;52.220;5.134;2023-04-01T18:17:23;5.45;;;4.38;;
60372;SDS011;46216;52.220;5.134;2023-04-01T18:22:58;4.90;;;4.40;;
60372;SDS011;46216;52.220;5.134;2023-04-01T18:25:38;4.57;;;4.18;;
60372;SDS011;46216;52.220;5.134;2023-04-01T18:30:51;3.78;;;3.47;;
60372;SDS011;46216;52.220;5.134;2023-04-01T18:33:24;3.90;;;3.28;;
60372;SDS011;46216;52.220;5.134;2023-04-01T18:38:36;5.28;;;3.55;;
60372;SDS011;46216;52.220;5.134;2023-04-01T18:41:19;4.20;;;3.72;;
60372;SDS011;46216;52.220;5.134;2023-04-01T18:46:59;4.57;;;4.18;;
60372;SDS011;46216;52.220;5.134;2023-04-01T19:05:46;9.30;;;7.57;;
60372;SDS011;46216;52.220;5.134;2023-04-01T19:08:27;8.45;;;7.50;;
60372;SDS011;46216;52.220;5.134;2023-04-01T19:13:55;9.30;;;7.95;;
60372;SDS011;46216;52.220;5.134;2023-04-01T19:19:32;9.57;;;8.43;;
60372;SDS011;46216;52.220;5.134;2023-04-01T19:27:42;9.43;;;8.40;;
60372;SDS011;46216;52.220;5.134;2023-04-01T19:41:09;11.20;;;8.48;;
60372;SDS011;46216;52.220;5.134;2023-04-01T19:46:43;10.35;;;8.35;;
60372;SDS011;46216;52.220;5.134;2023-04-01T19:57:13;8.40;;;7.47;;
60372;SDS011;46216;52.220;5.134;2023-04-01T19:59:53;8.32;;;7.43;;
60372;SDS011;46216;52.220;5.134;2023-04-01T20:05:30;10.07;;;7.90;;
60372;SDS011;46216;52.220;5.134;2023-04-01T20:08:07;8.30;;;7.25;;
60372;SDS011;46216;52.220;5.134;2023-04-01T20:10:47;10.57;;;7.50;;
60372;SDS011;46216;52.220;5.134;2023-04-01T20:19:13;9.10;;;7.50;;
60372;SDS011;46216;52.220;5.134;2023-04-01T20:21:46;8.93;;;7.40;;
60372;SDS011;46216;52.220;5.134;2023-04-01T20:26:39;9.02;;;7.65;;
60372;SDS011;46216;52.220;5.134;2023-04-01T20:32:14;9.38;;;7.75;;
60372;SDS011;46216;52.220;5.134;2023-04-01T20:37:48;8.45;;;7.43;;
60372;SDS011;46216;52.220;5.134;2023-04-01T20:40:26;8.70;;;7.60;;
60372;SDS011;46216;52.220;5.134;2023-04-01T20:45:52;9.80;;;7.50;;
60372;SDS011;46216;52.220;5.134;2023-04-01T20:51:06;9.43;;;7.13;;
60372;SDS011;46216;52.220;5.134;2023-04-01T20:56:45;9.73;;;7.88;;
60372;SDS011;46216;52.220;5.134;2023-04-01T21:05:12;8.60;;;7.00;;
60372;SDS011;46216;52.220;5.134;2023-04-01T21:13:31;8.73;;;7.82;;
60372;SDS011;46216;52.220;5.134;2023-04-01T21:19:10;8.88;;;7.78;;
60372;SDS011;46216;52.220;5.134;2023-04-01T21:43:48;10.35;;;8.38;;
60372;SDS011;46216;52.220;5.134;2023-04-01T21:46:35;9.50;;;8.50;;
60372;SDS011;46216;52.220;5.134;2023-04-01T22:00:17;9.80;;;8.65;;
60372;SDS011;46216;52.220;5.134;2023-04-01T22:14:15;12.25;;;8.18;;
60372;SDS011;46216;52.220;5.134;2023-04-01T22:20:23;13.70;;;9.38;;
60372;SDS011;46216;52.220;5.134;2023-04-01T22:23:14;11.15;;;9.15;;
60372;SDS011;46216;52.220;5.134;2023-04-01T22:36:50;12.70;;;8.98;;
60372;SDS011;46216;52.220;5.134;2023-04-01T22:42:38;12.80;;;9.98;;
60372;SDS011;46216;52.220;5.134;2023-04-01T22:45:22;12.35;;;9.57;;
60372;SDS011;46216;52.220;5.134;2023-04-01T22:48:15;13.00;;;9.00;;
60372;SDS011;46216;52.220;5.134;2023-04-01T22:55:56;12.68;;;9.95;;
60372;SDS011;46216;52.220;5.134;2023-04-01T22:58:41;12.10;;;9.63;;
60372;SDS011;46216;52.220;5.134;2023-04-01T23:01:13;12.95;;;9.43;;
60372;SDS011;46216;52.220;5.134;2023-04-01T23:03:44;15.73;;;10.38;;
60372;SDS011;46216;52.220;5.134;2023-04-01T23:06:47;11.73;;;9.73;;
60372;SDS011;46216;52.220;5.134;2023-04-01T23:09:27;15.60;;;10.20;;
60372;SDS011;46216;52.220;5.134;2023-04-01T23:12:02;18.50;;;10.25;;
60372;SDS011;46216;52.220;5.134;2023-04-01T23:35:53;14.05;;;10.73;;
60372;SDS011;46216;52.220;5.134;2023-04-01T23:38:36;13.32;;;10.35;;
60372;SDS011;46216;52.220;5.134;2023-04-01T23:41:04;15.82;;;11.52;;
60372;SDS011;46216;52.220;5.134;2023-04-01T23:43:32;15.35;;;10.98;;
60372;SDS011;46216;52.220;5.134;2023-04-01T23:46:02;17.02;;;11.20;;
60372;SDS011;46216;52.220;5.134;2023-04-01T23:48:32;14.43;;;11.13;;
60372;SDS011;46216;52.220;5.134;2023-04-01T23:51:01;13.20;;;10.35;;
60372;SDS011;46216;52.220;5.134;2023-04-01T23:53:29;16.48;;;10.30;;
60372;SDS011;46216;52.220;5.134;2023-04-01T23:55:57;17.23;;;11.57;;
